Time;durP1;ratioP1;P1;durP2;ratioP2;P2;SDS_P1;SDS_P2;PMS_P1;PMS_P2;Temp;Humidity;BMP_temperature;BMP_pressure;BME280_temperature;BME280_humidity;BME280_pressure;Samples;Min_cycle;Max_cycle;Signal;HPM_P1;HPM_P2
2022/02/04 00:25:01;;;;;;;;;;;;;;;;;;10367614;28;20022;-61
2022/02/04 00:30:11;;;;;;;13.73;6.30;;;;;;;;;;10367208;28;20373;-61
2022/02/04 00:35:48;;;;;;;11.48;6.47;;;;;;;;;;10366852;28;20517;-61
2022/02/04 00:40:37;;;;;;;13.45;6.53;;;;;;;;;;10371560;28;20049;-61
2022/02/04 00:51:06;;;;;;;14.93;6.57;;;;;;;;;;10370631;28;20068;-61
2022/02/04 01:27:57;;;;;;;12.73;6.75;;;;;;;;;;10372404;28;19917;-60
2022/02/04 01:32:57;;;;;;;12.37;6.10;;;;;;;;;;10372096;28;20033;-60
2022/02/04 01:37:57;;;;;;;12.52;6.32;;;;;;;;;;10372312;28;20467;-60
2022/02/04 01:42:58;;;;;;;11.87;6.40;;;;;;;;;;10371559;28;20032;-60
2022/02/04 01:47:58;;;;;;;12.60;6.45;;;;;;;;;;10371943;28;20507;-62
2022/02/04 01:53:00;;;;;;;11.25;6.13;;;;;;;;;;10370115;28;20057;-61
2022/02/04 01:58:00;;;;;;;11.95;6.03;;;;;;;;;;10365070;28;20491;-61
2022/02/04 02:03:01;;;;;;;8.18;5.70;;;;;;;;;;10371166;28;20029;-61
2022/02/04 02:08:12;;;;;;;9.30;5.77;;;;;;;;;;10369566;28;20461;-61
2022/02/04 02:44:40;;;;;;;12.77;5.60;;;;;;;;;;10368101;28;20113;-63
2022/02/04 03:05:24;;;;;;;7.38;5.30;;;;;;;;;;10366135;28;19917;-62
2022/02/04 03:10:25;;;;;;;10.23;5.37;;;;;;;;;;10368671;28;20026;-62
2022/02/04 03:15:25;;;;;;;8.88;5.25;;;;;;;;;;10368426;28;20811;-62
2022/02/04 03:20:26;;;;;;;8.00;5.67;;;;;;;;;;10368297;28;20033;-63
2022/02/04 03:25:26;;;;;;;8.93;5.75;;;;;;;;;;10368337;28;20467;-63
2022/02/04 03:30:31;;;;;;;9.07;5.03;;;;;;;;;;10368148;28;20026;-63
2022/02/04 03:35:32;;;;;;;11.52;5.68;;;;;;;;;;10368531;28;20436;-62
2022/02/04 03:40:32;;;;;;;11.68;5.35;;;;;;;;;;10367853;28;20026;-63
2022/02/04 03:45:33;;;;;;;9.97;5.67;;;;;;;;;;10367758;28;20118;-63
2022/02/04 03:50:33;;;;;;;8.57;5.00;;;;;;;;;;10368167;28;20451;-62
2022/02/04 03:55:33;;;;;;;8.80;4.50;;;;;;;;;;10368282;28;20048;-63
2022/02/04 04:00:39;;;;;;;7.93;5.17;;;;;;;;;;10367939;28;20467;-62
2022/02/04 04:05:46;;;;;;;8.30;4.80;;;;;;;;;;10361911;28;20432;-62
2022/02/04 04:10:46;;;;;;;6.90;4.78;;;;;;;;;;10367355;28;20109;-62
2022/02/04 04:15:47;;;;;;;8.00;4.70;;;;;;;;;;10373769;28;20136;-62
2022/02/04 04:20:48;;;;;;;7.68;5.32;;;;;;;;;;10374217;28;20029;-62
2022/02/04 04:25:48;;;;;;;6.75;4.70;;;;;;;;;;10374731;28;20466;-63
2022/02/04 04:30:49;;;;;;;8.15;5.20;;;;;;;;;;10375024;28;20565;-63
2022/02/04 04:35:49;;;;;;;8.85;5.40;;;;;;;;;;10374427;28;20018;-63
2022/02/04 05:33:35;;;;;;;7.75;4.82;;;;;;;;;;10372535;28;20038;-62
2022/02/04 05:38:36;;;;;;;7.00;4.82;;;;;;;;;;10372033;28;20030;-62
2022/02/04 05:43:39;;;;;;;7.93;4.78;;;;;;;;;;10372115;28;20108;-62
2022/02/04 05:48:44;;;;;;;7.28;4.60;;;;;;;;;;10371938;28;20076;-62
2022/02/04 06:14:48;;;;;;;6.10;4.32;;;;;;;;;;10366996;28;20429;-62
2022/02/04 06:25:08;;;;;;;4.93;4.30;;;;;;;;;;10370166;28;20358;-62
2022/02/04 06:30:10;;;;;;;7.43;4.45;;;;;;;;;;10370037;28;20034;-63
2022/02/04 06:35:11;;;;;;;6.18;4.20;;;;;;;;;;10367828;28;20261;-62
2022/02/04 06:40:12;;;;;;;7.03;3.90;;;;;;;;;;10369408;28;20272;-62
2022/02/04 06:45:12;;;;;;;6.53;4.22;;;;;;;;;;10369281;28;20026;-62
2022/02/04 06:50:13;;;;;;;8.83;3.80;;;;;;;;;;10368156;28;20025;-62
2022/02/04 06:55:13;;;;;;;6.68;3.95;;;;;;;;;;10368639;28;20432;-62
2022/02/04 07:00:15;;;;;;;10.73;3.97;;;;;;;;;;10368699;28;20505;-62
2022/02/04 07:05:16;;;;;;;16.95;4.20;;;;;;;;;;10369409;28;20033;-63
2022/02/04 07:10:32;;;;;;;11.57;4.03;;;;;;;;;;10367823;28;20022;-65
2022/02/04 07:20:52;;;;;;;;;;;;;;;;;;10365369;28;20030;-62
2022/02/04 07:25:52;;;;;;;9.05;4.03;;;;;;;;;;10367319;28;20281;-62
2022/02/04 07:30:54;;;;;;;11.77;4.35;;;;;;;;;;10366328;28;20029;-62
2022/02/04 07:38:37;;;;;;;13.23;4.50;;;;;;;;;;10368181;28;20101;-61
2022/02/04 07:41:20;;;;;;;14.68;4.55;;;;;;;;;;10367636;28;20073;-61
2022/02/04 07:46:21;;;;;;;11.23;3.90;;;;;;;;;;10368238;28;20193;-61
2022/02/04 07:51:21;;;;;;;8.32;3.67;;;;;;;;;;10374119;28;20477;-62
2022/02/04 07:56:23;;;;;;;14.82;4.10;;;;;;;;;;10375874;28;20029;-62
2022/02/04 08:01:28;;;;;;;7.53;4.18;;;;;;;;;;10375467;28;20427;-62
2022/02/04 08:06:32;;;;;;;7.85;4.05;;;;;;;;;;10375437;28;20422;-62
2022/02/04 08:22:38;;;;;;;5.70;3.85;;;;;;;;;;10370045;28;20401;-62
2022/02/04 08:54:31;;;;;;;9.85;4.65;;;;;;;;;;10373688;28;20482;-62
2022/02/04 08:59:53;;;;;;;6.50;4.30;;;;;;;;;;10373464;28;20040;-62
2022/02/04 09:04:54;;;;;;;9.88;4.45;;;;;;;;;;10374230;28;20038;-61
2022/02/04 09:09:59;;;;;;;7.85;4.20;;;;;;;;;;10374052;28;20488;-62
2022/02/04 09:25:25;;;;;;;11.82;4.63;;;;;;;;;;10372928;28;20116;-62
2022/02/04 09:30:25;;;;;;;8.95;5.05;;;;;;;;;;10369536;28;20245;-61
2022/02/04 09:35:26;;;;;;;9.07;4.30;;;;;;;;;;10369010;28;20249;-62
2022/02/04 09:40:26;;;;;;;10.77;4.90;;;;;;;;;;10371782;28;20451;-61
2022/02/04 09:45:28;;;;;;;9.07;4.17;;;;;;;;;;10371611;28;20099;-62
2022/02/04 09:50:31;;;;;;;7.55;4.72;;;;;;;;;;10371188;28;20798;-61
2022/02/04 10:06:58;;;;;;;9.73;5.07;;;;;;;;;;10370857;28;20482;-60
2022/02/04 10:21:58;;;;;;;6.60;4.45;;;;;;;;;;10369426;28;20038;-59
2022/02/04 10:27:11;;;;;;;7.68;4.90;;;;;;;;;;10370579;28;20537;-59
2022/02/04 10:32:11;;;;;;;9.57;4.47;;;;;;;;;;10370373;28;20030;-59
2022/02/04 10:37:23;;;;;;;7.65;4.80;;;;;;;;;;10367112;28;20397;-59
2022/02/04 10:42:59;;;;;;;6.95;4.63;;;;;;;;;;10369920;28;20049;-59
2022/02/04 11:03:26;;;;;;;8.35;5.00;;;;;;;;;;10369280;28;20045;-61
2022/02/04 11:51:31;;;;;;;6.63;4.22;;;;;;;;;;10364174;28;20049;-61
2022/02/04 11:56:57;;;;;;;7.55;4.50;;;;;;;;;;10364702;28;20358;-61
2022/02/04 12:01:58;;;;;;;7.53;4.55;;;;;;;;;;10367465;28;20099;-61
2022/02/04 12:06:58;;;;;;;5.93;4.33;;;;;;;;;;10366364;28;20091;-62
2022/02/04 12:11:59;;;;;;;8.10;4.70;;;;;;;;;;10367182;28;21006;-62
2022/02/04 12:17:12;;;;;;;5.57;4.43;;;;;;;;;;10367259;28;20443;-61
2022/02/04 12:22:13;;;;;;;7.53;4.85;;;;;;;;;;10367375;28;20104;-61
2022/02/04 12:27:37;;;;;;;7.28;4.85;;;;;;;;;;10366908;28;20426;-61
2022/02/04 12:32:38;;;;;;;6.03;4.03;;;;;;;;;;10366061;28;20029;-64
2022/02/04 12:37:45;;;;;;;6.25;4.43;;;;;;;;;;10371758;28;20030;-63
2022/02/04 12:42:46;;;;;;;9.60;5.35;;;;;;;;;;10374003;28;20113;-64
2022/02/04 12:47:48;;;;;;;5.40;4.30;;;;;;;;;;10374635;28;20176;-63
2022/02/04 12:52:50;;;;;;;8.45;4.90;;;;;;;;;;10372581;28;20028;-63
2022/02/04 12:58:08;;;;;;;10.82;5.18;;;;;;;;;;10367623;28;20030;-64
2022/02/04 13:03:19;;;;;;;6.97;4.72;;;;;;;;;;10372077;28;20450;-61
2022/02/04 13:08:25;;;;;;;11.63;3.97;;;;;;;;;;10372365;28;20493;-63
2022/02/04 13:13:26;;;;;;;8.30;4.80;;;;;;;;;;10371635;28;20107;-64
2022/02/04 13:18:27;;;;;;;6.13;3.83;;;;;;;;;;10371927;28;20026;-64
2022/02/04 13:23:32;;;;;;;8.38;4.45;;;;;;;;;;10371234;28;20029;-64
2022/02/04 13:28:40;;;;;;;7.97;4.07;;;;;;;;;;10370688;28;20025;-63
2022/02/04 13:33:41;;;;;;;5.87;4.43;;;;;;;;;;10372321;28;20026;-63
2022/02/04 13:49:02;;;;;;;9.77;4.30;;;;;;;;;;10371353;28;20022;-63
2022/02/04 13:54:06;;;;;;;;;;;;;;;;;;10371006;28;20438;-64
2022/02/04 13:59:16;;;;;;;11.63;4.20;;;;;;;;;;10364321;28;19913;-64
2022/02/04 14:04:16;;;;;;;7.38;4.20;;;;;;;;;;10371317;28;20112;-62
2022/02/04 14:09:20;;;;;;;6.70;4.63;;;;;;;;;;10370851;28;20030;-64
2022/02/04 14:14:22;;;;;;;7.00;4.40;;;;;;;;;;10370377;28;20460;-60
2022/02/04 14:19:26;;;;;;;10.48;4.60;;;;;;;;;;10371069;28;20076;-61
2022/02/04 14:24:28;;;;;;;8.95;4.57;;;;;;;;;;10369274;28;20029;-60
2022/02/04 14:29:47;;;;;;;12.60;4.13;;;;;;;;;;10370223;28;20034;-60
2022/02/04 15:01:23;;;;;;;9.27;4.63;;;;;;;;;;10365993;28;20054;-60
2022/02/04 15:06:34;;;;;;;10.30;4.47;;;;;;;;;;10365506;28;20029;-60
2022/02/04 15:11:42;;;;;;;11.77;5.00;;;;;;;;;;10369237;28;20053;-63
2022/02/04 15:16:44;;;;;;;18.48;4.82;;;;;;;;;;10368267;28;20504;-63
2022/02/04 15:21:47;;;;;;;15.45;5.43;;;;;;;;;;10367392;28;20036;-62
2022/02/04 15:26:47;;;;;;;10.77;5.15;;;;;;;;;;10367593;28;20026;-64
2022/02/04 15:31:57;;;;;;;8.83;4.83;;;;;;;;;;10367865;28;20037;-64
2022/02/04 15:36:57;;;;;;;18.65;5.57;;;;;;;;;;10368398;28;20489;-64
2022/02/04 15:42:05;;;;;;;21.52;5.47;;;;;;;;;;10367846;28;20045;-64
2022/02/04 15:47:36;;;;;;;19.85;4.82;;;;;;;;;;10368317;28;20034;-63
2022/02/04 16:08:02;;;;;;;14.88;4.95;;;;;;;;;;10364441;28;20042;-61
2022/02/04 16:13:25;;;;;;;15.82;5.60;;;;;;;;;;10372340;28;20502;-64
2022/02/04 16:18:31;;;;;;;17.00;6.40;;;;;;;;;;10375139;28;20026;-63
2022/02/04 16:23:45;;;;;;;13.30;5.47;;;;;;;;;;10374803;28;20033;-64
2022/02/04 16:28:45;;;;;;;14.65;6.50;;;;;;;;;;10374482;28;20033;-64
2022/02/04 16:33:47;;;;;;;13.70;6.43;;;;;;;;;;10374983;28;20033;-64
2022/02/04 16:38:54;;;;;;;15.43;7.75;;;;;;;;;;10374234;28;20049;-64
2022/02/04 16:43:54;;;;;;;16.40;7.82;;;;;;;;;;10374129;28;20033;-63
2022/02/04 16:48:55;;;;;;;17.60;7.73;;;;;;;;;;10374526;28;20033;-63
2022/02/04 16:53:55;;;;;;;20.73;8.97;;;;;;;;;;10374710;28;20791;-60
2022/02/04 16:58:55;;;;;;;18.25;8.38;;;;;;;;;;10373508;28;20432;-60
2022/02/04 17:03:57;;;;;;;18.60;8.57;;;;;;;;;;10372864;28;20025;-61
2022/02/04 17:09:09;;;;;;;16.88;8.15;;;;;;;;;;10373544;28;20036;-60
2022/02/04 17:14:10;;;;;;;19.10;8.88;;;;;;;;;;10370041;28;20045;-61
2022/02/04 17:19:13;;;;;;;18.13;9.10;;;;;;;;;;10369300;28;20022;-60
2022/02/04 17:24:15;;;;;;;25.75;9.10;;;;;;;;;;10355310;28;20041;-64
2022/02/04 17:29:15;;;;;;;18.23;9.23;;;;;;;;;;10372825;28;20029;-64
2022/02/04 17:34:16;;;;;;;18.35;8.90;;;;;;;;;;10371982;28;20033;-64
2022/02/04 17:39:22;;;;;;;18.55;8.90;;;;;;;;;;10372371;28;20437;-64
2022/02/04 17:44:23;;;;;;;17.27;8.57;;;;;;;;;;10370401;28;20393;-64
2022/02/04 17:49:29;;;;;;;21.08;9.48;;;;;;;;;;10371998;28;20037;-63
2022/02/04 17:54:38;;;;;;;20.08;10.07;;;;;;;;;;10371033;28;20042;-64
2022/02/04 18:10:08;;;;;;;16.92;10.38;;;;;;;;;;10369835;28;20033;-61
2022/02/04 18:15:09;;;;;;;19.95;10.25;;;;;;;;;;10377750;22;20449;-60
2022/02/04 18:20:10;;;;;;;20.63;9.73;;;;;;;;;;10366258;28;20084;-60
2022/02/04 18:25:10;;;;;;;20.88;10.48;;;;;;;;;;10368753;28;20026;-59
2022/02/04 18:30:13;;;;;;;20.02;10.52;;;;;;;;;;10368582;28;20160;-58
2022/02/04 18:35:15;;;;;;;22.90;10.73;;;;;;;;;;10368088;28;20030;-59
2022/02/04 18:45:45;;;;;;;21.23;10.65;;;;;;;;;;10366036;28;20042;-61
2022/02/04 18:51:01;;;;;;;22.83;11.00;;;;;;;;;;10368609;28;20038;-59
2022/02/04 19:01:03;;;;;;;20.57;10.77;;;;;;;;;;10365982;28;20380;-62
2022/02/04 19:06:12;;;;;;;19.67;9.57;;;;;;;;;;10367568;28;20452;-58
2022/02/04 19:11:15;;;;;;;;;;;;;;;;;;10368663;28;20030;-58
2022/02/04 19:21:32;;;;;;;20.47;10.03;;;;;;;;;;10361422;28;20037;-60
2022/02/04 19:26:33;;;;;;;18.90;10.05;;;;;;;;;;10366799;28;20427;-60
2022/02/04 19:31:40;;;;;;;22.55;10.30;;;;;;;;;;10367532;28;20026;-61
2022/02/04 19:36:40;;;;;;;23.20;10.23;;;;;;;;;;10365270;28;20402;-60
2022/02/04 19:41:46;;;;;;;15.35;9.68;;;;;;;;;;10365729;28;20026;-60
2022/02/04 19:46:52;;;;;;;17.95;10.35;;;;;;;;;;10379356;28;20034;-59
2022/02/04 19:52:03;;;;;;;39.35;11.50;;;;;;;;;;10380581;28;20033;-59
2022/02/04 20:23:37;;;;;;;;;;;;;;;;;;10377785;28;20482;-60
2022/02/04 20:28:38;;;;;;;26.33;11.00;;;;;;;;;;10380928;28;19919;-60
2022/02/04 20:33:38;;;;;;;23.13;10.68;;;;;;;;;;10377151;28;20038;-60
2022/02/04 20:38:48;;;;;;;18.30;10.33;;;;;;;;;;10379254;28;20406;-60
2022/02/04 20:43:49;;;;;;;17.75;9.95;;;;;;;;;;10380530;28;20459;-60
2022/02/04 20:48:49;;;;;;;24.20;11.07;;;;;;;;;;10380299;28;20049;-60
2022/02/04 20:53:51;;;;;;;21.58;11.77;;;;;;;;;;10379514;28;20421;-60
2022/02/04 20:58:51;;;;;;;22.50;10.20;;;;;;;;;;10373691;28;20030;-60
2022/02/04 21:03:52;;;;;;;19.70;11.17;;;;;;;;;;10372235;28;20486;-59
2022/02/04 21:13:57;;;;;;;21.33;10.03;;;;;;;;;;10372012;28;20579;-60
2022/02/04 21:18:58;;;;;;;20.60;10.60;;;;;;;;;;10373299;28;20448;-60
2022/02/04 21:23:59;;;;;;;21.50;10.43;;;;;;;;;;10373021;28;20091;-60
2022/02/04 21:28:59;;;;;;;18.90;11.13;;;;;;;;;;10369311;28;20532;-60
2022/02/04 21:39:09;;;;;;;20.70;10.60;;;;;;;;;;10372182;28;20025;-60
2022/02/04 21:44:10;;;;;;;23.85;11.15;;;;;;;;;;10371872;28;20030;-60
2022/02/04 21:49:10;;;;;;;15.20;9.68;;;;;;;;;;10372180;28;20030;-60
2022/02/04 21:54:11;;;;;;;18.48;10.45;;;;;;;;;;10372020;28;20033;-60
2022/02/04 21:59:11;;;;;;;17.70;10.85;;;;;;;;;;10371306;28;20053;-60
2022/02/04 22:04:12;;;;;;;20.00;10.75;;;;;;;;;;10370976;28;20026;-60
2022/02/04 22:24:57;;;;;;;22.58;11.13;;;;;;;;;;10370147;28;20034;-60
2022/02/04 22:30:05;;;;;;;18.65;11.32;;;;;;;;;;10370612;28;20025;-60
2022/02/04 22:35:19;;;;;;;18.65;10.57;;;;;;;;;;10367228;28;20030;-60
2022/02/04 22:50:50;;;;;;;;;;;;;;;;;;10368220;28;20408;-60
2022/02/04 23:01:09;;;;;;;18.25;10.98;;;;;;;;;;10368483;28;20030;-60
2022/02/04 23:06:13;;;;;;;17.65;11.48;;;;;;;;;;10368682;28;20042;-60
2022/02/04 23:11:13;;;;;;;18.77;11.88;;;;;;;;;;10368300;28;20389;-60
2022/02/04 23:16:20;;;;;;;16.53;11.23;;;;;;;;;;10367749;28;20034;-61
2022/02/04 23:21:27;;;;;;;20.25;12.13;;;;;;;;;;10368123;28;20462;-59
2022/02/04 23:26:39;;;;;;;14.48;10.60;;;;;;;;;;10367638;28;20108;-60
2022/02/04 23:32:18;;;;;;;23.65;10.90;;;;;;;;;;10368073;28;20065;-61
2022/02/04 23:43:59;;;;;;;32.95;11.90;;;;;;;;;;10366291;28;20041;-60
2022/02/04 23:53:03;;;;;;;24.38;12.32;;;;;;;;;;10366101;28;20451;-60
2022/02/04 23:58:05;;;;;;;23.37;10.90;;;;;;;;;;10367520;28;20077;-59
